sensor_id;sensor_type;location;lat;lon;timestamp;pressure;altitude;pressure_sealevel;temperature;humidity
49377;BME280;35253;34.688;33.040;2023-02-21T00:02:27;101484.66;;;12.34;100.00
49377;BME280;35253;34.688;33.040;2023-02-21T00:05:11;101489.09;;;12.35;100.00
49377;BME280;35253;34.688;33.040;2023-02-21T00:07:55;101477.44;;;12.36;100.00
49377;BME280;35253;34.688;33.040;2023-02-21T00:10:39;101467.50;;;12.38;100.00
49377;BME280;35253;34.688;33.040;2023-02-21T00:13:23;101467.50;;;12.38;100.00
49377;BME280;35253;34.688;33.040;2023-02-21T00:16:07;101479.63;;;12.45;100.00
49377;BME280;35253;34.688;33.040;2023-02-21T00:18:50;101478.84;;;12.43;100.00
49377;BME280;35253;34.688;33.040;2023-02-21T00:21:34;101467.88;;;12.47;100.00
49377;BME280;35253;34.688;33.040;2023-02-21T00:24:19;101463.59;;;12.45;100.00
49377;BME280;35253;34.688;33.040;2023-02-21T00:27:03;101467.19;;;12.44;100.00
49377;BME280;35253;34.688;33.040;2023-02-21T00:29:48;101473.59;;;12.41;100.00
49377;BME280;35253;34.688;33.040;2023-02-21T00:32:32;101473.97;;;12.34;100.00
49377;BME280;35253;34.688;33.040;2023-02-21T00:35:16;101479.94;;;12.39;100.00
49377;BME280;35253;34.688;33.040;2023-02-21T00:38:00;101474.59;;;12.39;100.00
49377;BME280;35253;34.688;33.040;2023-02-21T00:40:44;101476.50;;;12.37;100.00
49377;BME280;35253;34.688;33.040;2023-02-21T00:43:29;101480.31;;;12.48;100.00
49377;BME280;35253;34.688;33.040;2023-02-21T00:46:13;101476.00;;;12.46;100.00
49377;BME280;35253;34.688;33.040;2023-02-21T00:48:57;101470.50;;;12.49;100.00
49377;BME280;35253;34.688;33.040;2023-02-21T00:51:41;101471.09;;;12.54;100.00
49377;BME280;35253;34.688;33.040;2023-02-21T00:54:25;101472.66;;;12.58;100.00
49377;BME280;35253;34.688;33.040;2023-02-21T00:57:09;101473.94;;;12.51;100.00
49377;BME280;35253;34.688;33.040;2023-02-21T00:59:53;101475.09;;;12.62;100.00
49377;BME280;35253;34.688;33.040;2023-02-21T01:02:37;101480.50;;;12.61;100.00
49377;BME280;35253;34.688;33.040;2023-02-21T01:05:21;101468.81;;;12.63;100.00
49377;BME280;35253;34.688;33.040;2023-02-21T01:08:05;101473.78;;;12.54;100.00
49377;BME280;35253;34.688;33.040;2023-02-21T01:10:49;101473.53;;;12.74;100.00
49377;BME280;35253;34.688;33.040;2023-02-21T01:13:33;101474.53;;;12.56;100.00
49377;BME280;35253;34.688;33.040;2023-02-21T01:16:17;101471.72;;;12.59;100.00
49377;BME280;35253;34.688;33.040;2023-02-21T01:19:01;101479.50;;;12.63;100.00
49377;BME280;35253;34.688;33.040;2023-02-21T01:21:45;101477.25;;;12.72;100.00
49377;BME280;35253;34.688;33.040;2023-02-21T01:24:29;101470.44;;;12.66;100.00
49377;BME280;35253;34.688;33.040;2023-02-21T01:27:13;101473.72;;;12.71;100.00
49377;BME280;35253;34.688;33.040;2023-02-21T01:29:57;101462.06;;;12.72;100.00
49377;BME280;35253;34.688;33.040;2023-02-21T01:32:41;101464.38;;;12.78;100.00
49377;BME280;35253;34.688;33.040;2023-02-21T01:35:24;101458.41;;;12.73;100.00
49377;BME280;35253;34.688;33.040;2023-02-21T01:38:08;101461.91;;;12.75;100.00
49377;BME280;35253;34.688;33.040;2023-02-21T01:40:52;101455.75;;;12.57;100.00
49377;BME280;35253;34.688;33.040;2023-02-21T01:43:36;101465.81;;;12.52;100.00
49377;BME280;35253;34.688;33.040;2023-02-21T01:46:20;101464.28;;;12.48;100.00
49377;BME280;35253;34.688;33.040;2023-02-21T01:49:06;101467.38;;;12.41;100.00
49377;BME280;35253;34.688;33.040;2023-02-21T01:51:51;101459.03;;;12.30;100.00
49377;BME280;35253;34.688;33.040;2023-02-21T01:54:37;101461.16;;;12.40;100.00
49377;BME280;35253;34.688;33.040;2023-02-21T01:57:23;101466.56;;;12.39;100.00
49377;BME280;35253;34.688;33.040;2023-02-21T02:00:08;101468.06;;;12.44;100.00
49377;BME280;35253;34.688;33.040;2023-02-21T02:02:56;101462.97;;;12.40;100.00
49377;BME280;35253;34.688;33.040;2023-02-21T02:05:42;101460.13;;;12.43;100.00
49377;BME280;35253;34.688;33.040;2023-02-21T02:08:28;101458.56;;;12.39;100.00
49377;BME280;35253;34.688;33.040;2023-02-21T02:11:18;101465.81;;;12.37;100.00
49377;BME280;35253;34.688;33.040;2023-02-21T02:17:04;101464.06;;;12.36;100.00
49377;BME280;35253;34.688;33.040;2023-02-21T02:22:07;101458.47;;;12.40;100.00
49377;BME280;35253;34.688;33.040;2023-02-21T02:42:54;101479.19;;;12.37;100.00
49377;BME280;35253;34.688;33.040;2023-02-21T02:45:26;101466.50;;;12.40;100.00
49377;BME280;35253;34.688;33.040;2023-02-21T02:47:56;101465.94;;;12.34;100.00
49377;BME280;35253;34.688;33.040;2023-02-21T02:50:24;101471.31;;;12.34;100.00
49377;BME280;35253;34.688;33.040;2023-02-21T02:52:51;101460.94;;;12.28;100.00
49377;BME280;35253;34.688;33.040;2023-02-21T02:55:23;101464.56;;;12.27;100.00
49377;BME280;35253;34.688;33.040;2023-02-21T02:57:50;101458.09;;;12.31;100.00
49377;BME280;35253;34.688;33.040;2023-02-21T03:00:17;101457.94;;;12.34;100.00
49377;BME280;35253;34.688;33.040;2023-02-21T03:02:48;101460.59;;;12.34;100.00
49377;BME280;35253;34.688;33.040;2023-02-21T03:05:19;101454.25;;;12.36;100.00
49377;BME280;35253;34.688;33.040;2023-02-21T03:13:03;101463.69;;;12.26;100.00
49377;BME280;35253;34.688;33.040;2023-02-21T03:15:35;101457.84;;;12.19;100.00
49377;BME280;35253;34.688;33.040;2023-02-21T03:18:45;101464.50;;;12.28;100.00
49377;BME280;35253;34.688;33.040;2023-02-21T03:20:52;101464.75;;;12.24;100.00
49377;BME280;35253;34.688;33.040;2023-02-21T03:23:20;101465.69;;;12.23;100.00
49377;BME280;35253;34.688;33.040;2023-02-21T03:25:46;101473.00;;;12.19;100.00
49377;BME280;35253;34.688;33.040;2023-02-21T03:28:14;101468.88;;;12.29;100.00
49377;BME280;35253;34.688;33.040;2023-02-21T03:30:40;101459.03;;;12.30;100.00
49377;BME280;35253;34.688;33.040;2023-02-21T03:33:06;101474.47;;;12.25;100.00
49377;BME280;35253;34.688;33.040;2023-02-21T03:35:32;101477.63;;;12.15;100.00
49377;BME280;35253;34.688;33.040;2023-02-21T03:37:57;101482.66;;;12.22;100.00
49377;BME280;35253;34.688;33.040;2023-02-21T03:40:24;101476.03;;;12.29;100.00
49377;BME280;35253;34.688;33.040;2023-02-21T03:42:50;101478.81;;;12.27;100.00
49377;BME280;35253;34.688;33.040;2023-02-21T03:45:16;101484.72;;;12.16;100.00
49377;BME280;35253;34.688;33.040;2023-02-21T03:47:41;101490.75;;;12.20;100.00
49377;BME280;35253;34.688;33.040;2023-02-21T03:50:07;101490.59;;;12.23;100.00
49377;BME280;35253;34.688;33.040;2023-02-21T03:52:32;101485.97;;;12.27;100.00
49377;BME280;35253;34.688;33.040;2023-02-21T03:54:58;101490.88;;;12.34;100.00
49377;BME280;35253;34.688;33.040;2023-02-21T03:57:24;101493.81;;;12.30;100.00
49377;BME280;35253;34.688;33.040;2023-02-21T03:59:50;101496.47;;;12.30;100.00
49377;BME280;35253;34.688;33.040;2023-02-21T04:02:16;101493.59;;;12.17;100.00
49377;BME280;35253;34.688;33.040;2023-02-21T04:04:41;101495.09;;;12.23;100.00
49377;BME280;35253;34.688;33.040;2023-02-21T04:07:07;101494.75;;;12.29;100.00
49377;BME280;35253;34.688;33.040;2023-02-21T04:09:34;101489.56;;;12.26;100.00
49377;BME280;35253;34.688;33.040;2023-02-21T04:11:59;101498.88;;;12.18;100.00
49377;BME280;35253;34.688;33.040;2023-02-21T04:14:24;101497.59;;;12.26;100.00
49377;BME280;35253;34.688;33.040;2023-02-21T04:16:50;101496.97;;;12.20;100.00
49377;BME280;35253;34.688;33.040;2023-02-21T04:19:15;101495.78;;;12.26;100.00
49377;BME280;35253;34.688;33.040;2023-02-21T04:21:41;101494.75;;;12.29;100.00
49377;BME280;35253;34.688;33.040;2023-02-21T04:24:06;101498.00;;;12.18;100.00
49377;BME280;35253;34.688;33.040;2023-02-21T04:26:32;101492.72;;;12.16;100.00
49377;BME280;35253;34.688;33.040;2023-02-21T04:28:59;101499.88;;;12.16;100.00
49377;BME280;35253;34.688;33.040;2023-02-21T04:31:25;101503.53;;;12.15;100.00
49377;BME280;35253;34.688;33.040;2023-02-21T04:33:50;101500.22;;;12.10;100.00
49377;BME280;35253;34.688;33.040;2023-02-21T04:36:15;101510.81;;;12.11;100.00
49377;BME280;35253;34.688;33.040;2023-02-21T04:38:41;101501.41;;;12.04;100.00
49377;BME280;35253;34.688;33.040;2023-02-21T04:41:06;101509.19;;;12.09;100.00
49377;BME280;35253;34.688;33.040;2023-02-21T04:43:32;101509.41;;;12.22;100.00
49377;BME280;35253;34.688;33.040;2023-02-21T04:45:57;101509.94;;;12.28;100.00
49377;BME280;35253;34.688;33.040;2023-02-21T04:48:23;101515.06;;;12.33;100.00
49377;BME280;35253;34.688;33.040;2023-02-21T04:50:48;101515.19;;;12.30;100.00
49377;BME280;35253;34.688;33.040;2023-02-21T04:53:14;101511.88;;;12.42;100.00
49377;BME280;35253;34.688;33.040;2023-02-21T04:55:39;101507.00;;;12.50;100.00
49377;BME280;35253;34.688;33.040;2023-02-21T04:58:05;101509.50;;;12.53;100.00
49377;BME280;35253;34.688;33.040;2023-02-21T05:00:30;101516.34;;;12.58;100.00
49377;BME280;35253;34.688;33.040;2023-02-21T05:02:56;101519.69;;;12.62;100.00
49377;BME280;35253;34.688;33.040;2023-02-21T05:05:21;101525.91;;;12.62;100.00
49377;BME280;35253;34.688;33.040;2023-02-21T05:07:47;101527.09;;;12.57;100.00
49377;BME280;35253;34.688;33.040;2023-02-21T05:10:13;101520.41;;;12.65;100.00
49377;BME280;35253;34.688;33.040;2023-02-21T05:12:39;101516.59;;;12.70;100.00
49377;BME280;35253;34.688;33.040;2023-02-21T05:15:05;101508.81;;;12.65;100.00
49377;BME280;35253;34.688;33.040;2023-02-21T05:17:30;101513.84;;;12.71;100.00
49377;BME280;35253;34.688;33.040;2023-02-21T05:19:56;101517.03;;;12.78;100.00
49377;BME280;35253;34.688;33.040;2023-02-21T05:22:21;101514.13;;;12.82;100.00
49377;BME280;35253;34.688;33.040;2023-02-21T05:24:47;101527.00;;;12.91;100.00
49377;BME280;35253;34.688;33.040;2023-02-21T05:27:13;101540.66;;;13.02;100.00
49377;BME280;35253;34.688;33.040;2023-02-21T05:29:41;101532.00;;;12.97;100.00
49377;BME280;35253;34.688;33.040;2023-02-21T05:32:07;101537.00;;;13.03;100.00
49377;BME280;35253;34.688;33.040;2023-02-21T05:34:32;101542.97;;;13.08;100.00
49377;BME280;35253;34.688;33.040;2023-02-21T05:36:58;101542.75;;;13.13;100.00
49377;BME280;35253;34.688;33.040;2023-02-21T05:39:23;101538.59;;;13.07;100.00
49377;BME280;35253;34.688;33.040;2023-02-21T05:41:49;101544.06;;;13.22;100.00
49377;BME280;35253;34.688;33.040;2023-02-21T05:44:15;101549.69;;;13.33;100.00
49377;BME280;35253;34.688;33.040;2023-02-21T05:46:40;101548.44;;;13.38;100.00
49377;BME280;35253;34.688;33.040;2023-02-21T05:49:06;101552.44;;;13.47;100.00
49377;BME280;35253;34.688;33.040;2023-02-21T05:51:35;101557.44;;;13.53;100.00
49377;BME280;35253;34.688;33.040;2023-02-21T05:54:01;101563.47;;;13.57;100.00
49377;BME280;35253;34.688;33.040;2023-02-21T05:56:27;101572.66;;;13.68;100.00
49377;BME280;35253;34.688;33.040;2023-02-21T05:58:52;101573.50;;;13.69;100.00
49377;BME280;35253;34.688;33.040;2023-02-21T06:01:18;101573.41;;;13.86;100.00
49377;BME280;35253;34.688;33.040;2023-02-21T06:03:43;101576.38;;;13.95;100.00
49377;BME280;35253;34.688;33.040;2023-02-21T06:06:09;101576.69;;;14.05;100.00
49377;BME280;35253;34.688;33.040;2023-02-21T06:08:41;101578.25;;;14.09;100.00
49377;BME280;35253;34.688;33.040;2023-02-21T06:11:07;101581.25;;;14.19;100.00
49377;BME280;35253;34.688;33.040;2023-02-21T06:13:32;101588.06;;;14.24;100.00
49377;BME280;35253;34.688;33.040;2023-02-21T06:15:58;101587.59;;;14.32;100.00
49377;BME280;35253;34.688;33.040;2023-02-21T06:18:23;101591.31;;;14.45;100.00
49377;BME280;35253;34.688;33.040;2023-02-21T06:20:48;101594.38;;;14.53;100.00
49377;BME280;35253;34.688;33.040;2023-02-21T06:23:14;101592.59;;;14.68;100.00
49377;BME280;35253;34.688;33.040;2023-02-21T06:25:39;101600.34;;;14.72;100.00
49377;BME280;35253;34.688;33.040;2023-02-21T06:28:05;101609.00;;;14.77;100.00
49377;BME280;35253;34.688;33.040;2023-02-21T06:30:30;101609.47;;;14.84;100.00
49377;BME280;35253;34.688;33.040;2023-02-21T06:32:56;101619.91;;;14.88;100.00
49377;BME280;35253;34.688;33.040;2023-02-21T06:35:21;101620.31;;;14.97;100.00
49377;BME280;35253;34.688;33.040;2023-02-21T06:37:46;101620.59;;;15.06;100.00
49377;BME280;35253;34.688;33.040;2023-02-21T06:40:12;101635.47;;;15.12;100.00
49377;BME280;35253;34.688;33.040;2023-02-21T06:42:37;101640.63;;;15.15;100.00
49377;BME280;35253;34.688;33.040;2023-02-21T06:45:03;101634.91;;;15.21;100.00
49377;BME280;35253;34.688;33.040;2023-02-21T06:47:29;101642.47;;;15.28;100.00
49377;BME280;35253;34.688;33.040;2023-02-21T06:49:55;101634.69;;;15.38;100.00
49377;BME280;35253;34.688;33.040;2023-02-21T06:52:20;101636.13;;;15.44;100.00
49377;BME280;35253;34.688;33.040;2023-02-21T06:54:48;101638.31;;;15.37;100.00
49377;BME280;35253;34.688;33.040;2023-02-21T06:57:14;101641.59;;;15.42;100.00
49377;BME280;35253;34.688;33.040;2023-02-21T06:59:39;101639.38;;;15.49;100.00
49377;BME280;35253;34.688;33.040;2023-02-21T07:02:05;101634.84;;;15.49;100.00
49377;BME280;35253;34.688;33.040;2023-02-21T07:04:31;101638.34;;;15.51;100.00
49377;BME280;35253;34.688;33.040;2023-02-21T07:06:56;101646.56;;;15.62;100.00
49377;BME280;35253;34.688;33.040;2023-02-21T07:09:22;101628.16;;;15.56;100.00
49377;BME280;35253;34.688;33.040;2023-02-21T07:11:47;101630.44;;;15.62;100.00
49377;BME280;35253;34.688;33.040;2023-02-21T07:14:13;101638.78;;;15.72;100.00
49377;BME280;35253;34.688;33.040;2023-02-21T07:16:39;101634.81;;;15.77;100.00
49377;BME280;35253;34.688;33.040;2023-02-21T07:19:04;101642.25;;;15.74;100.00
49377;BME280;35253;34.688;33.040;2023-02-21T07:21:30;101642.00;;;15.91;100.00
49377;BME280;35253;34.688;33.040;2023-02-21T07:23:55;101632.97;;;15.92;100.00
49377;BME280;35253;34.688;33.040;2023-02-21T07:26:21;101640.53;;;16.00;100.00
49377;BME280;35253;34.688;33.040;2023-02-21T07:28:47;101639.75;;;15.98;100.00
49377;BME280;35253;34.688;33.040;2023-02-21T07:31:12;101637.19;;;15.96;100.00
49377;BME280;35253;34.688;33.040;2023-02-21T07:33:38;101642.66;;;15.95;100.00
49377;BME280;35253;34.688;33.040;2023-02-21T07:36:03;101640.53;;;16.00;100.00
49377;BME280;35253;34.688;33.040;2023-02-21T07:38:29;101648.50;;;16.01;100.00
49377;BME280;35253;34.688;33.040;2023-02-21T07:40:58;101635.56;;;16.06;100.00
49377;BME280;35253;34.688;33.040;2023-02-21T07:43:25;101645.06;;;16.12;100.00
49377;BME280;35253;34.688;33.040;2023-02-21T07:45:51;101648.31;;;16.17;100.00
49377;BME280;35253;34.688;33.040;2023-02-21T07:48:17;101645.75;;;16.28;100.00
49377;BME280;35253;34.688;33.040;2023-02-21T07:50:42;101642.09;;;16.29;100.00
49377;BME280;35253;34.688;33.040;2023-02-21T07:53:08;101641.28;;;16.41;100.00
49377;BME280;35253;34.688;33.040;2023-02-21T07:55:34;101646.25;;;16.47;100.00
49377;BME280;35253;34.688;33.040;2023-02-21T07:57:59;101647.03;;;16.49;100.00
49377;BME280;35253;34.688;33.040;2023-02-21T08:00:25;101654.63;;;16.43;100.00
49377;BME280;35253;34.688;33.040;2023-02-21T08:02:50;101648.59;;;16.39;100.00
49377;BME280;35253;34.688;33.040;2023-02-21T08:05:16;101645.38;;;16.47;100.00
49377;BME280;35253;34.688;33.040;2023-02-21T08:07:42;101650.06;;;16.57;100.00
49377;BME280;35253;34.688;33.040;2023-02-21T08:10:08;101646.94;;;16.63;100.00
49377;BME280;35253;34.688;33.040;2023-02-21T08:12:33;101638.50;;;16.55;100.00
49377;BME280;35253;34.688;33.040;2023-02-21T08:14:59;101646.50;;;16.57;100.00
49377;BME280;35253;34.688;33.040;2023-02-21T08:17:25;101645.44;;;16.59;100.00
49377;BME280;35253;34.688;33.040;2023-02-21T08:19:50;101651.69;;;16.73;100.00
49377;BME280;35253;34.688;33.040;2023-02-21T08:22:16;101648.81;;;16.76;100.00
49377;BME280;35253;34.688;33.040;2023-02-21T08:24:42;101648.69;;;16.77;100.00
49377;BME280;35253;34.688;33.040;2023-02-21T08:27:07;101649.56;;;16.78;100.00
49377;BME280;35253;34.688;33.040;2023-02-21T08:29:33;101647.63;;;16.80;100.00
49377;BME280;35253;34.688;33.040;2023-02-21T08:31:58;101646.44;;;16.84;100.00
49377;BME280;35253;34.688;33.040;2023-02-21T08:34:25;101647.19;;;16.86;100.00
49377;BME280;35253;34.688;33.040;2023-02-21T08:36:53;101639.88;;;16.88;100.00
49377;BME280;35253;34.688;33.040;2023-02-21T08:39:19;101643.75;;;16.84;100.00
49377;BME280;35253;34.688;33.040;2023-02-21T08:41:45;101649.88;;;16.86;100.00
49377;BME280;35253;34.688;33.040;2023-02-21T08:44:14;101633.16;;;16.81;100.00
49377;BME280;35253;34.688;33.040;2023-02-21T08:46:43;101632.75;;;16.87;100.00
49377;BME280;35253;34.688;33.040;2023-02-21T08:49:09;101625.84;;;16.95;100.00
49377;BME280;35253;34.688;33.040;2023-02-21T08:51:34;101635.53;;;16.85;100.00
49377;BME280;35253;34.688;33.040;2023-02-21T08:54:00;101632.34;;;16.93;100.00
49377;BME280;35253;34.688;33.040;2023-02-21T08:56:26;101637.25;;;17.11;100.00
49377;BME280;35253;34.688;33.040;2023-02-21T08:58:52;101639.88;;;17.00;100.00
49377;BME280;35253;34.688;33.040;2023-02-21T09:01:19;101627.16;;;17.02;100.00
49377;BME280;35253;34.688;33.040;2023-02-21T09:03:45;101634.47;;;17.13;100.00
49377;BME280;35253;34.688;33.040;2023-02-21T09:06:10;101623.25;;;17.19;100.00
49377;BME280;35253;34.688;33.040;2023-02-21T09:08:36;101631.34;;;16.94;100.00
49377;BME280;35253;34.688;33.040;2023-02-21T09:11:02;101628.66;;;17.19;100.00
49377;BME280;35253;34.688;33.040;2023-02-21T09:13:28;101626.91;;;17.18;100.00
49377;BME280;35253;34.688;33.040;2023-02-21T09:15:57;101623.44;;;17.16;100.00
49377;BME280;35253;34.688;33.040;2023-02-21T09:18:24;101632.97;;;17.09;100.00
49377;BME280;35253;34.688;33.040;2023-02-21T09:20:49;101629.72;;;17.04;100.00
49377;BME280;35253;34.688;33.040;2023-02-21T09:23:17;101623.59;;;17.02;100.00
49377;BME280;35253;34.688;33.040;2023-02-21T09:25:46;101628.34;;;17.11;100.00
49377;BME280;35253;34.688;33.040;2023-02-21T09:28:12;101611.41;;;17.09;100.00
49377;BME280;35253;34.688;33.040;2023-02-21T09:30:37;101621.75;;;17.15;100.00
49377;BME280;35253;34.688;33.040;2023-02-21T09:33:03;101616.88;;;17.07;100.00
49377;BME280;35253;34.688;33.040;2023-02-21T09:35:28;101616.56;;;17.12;100.00
49377;BME280;35253;34.688;33.040;2023-02-21T09:37:55;101617.22;;;17.03;100.00
49377;BME280;35253;34.688;33.040;2023-02-21T09:43:03;101606.00;;;17.22;100.00
49377;BME280;35253;34.688;33.040;2023-02-21T09:45:30;101606.75;;;17.24;100.00
49377;BME280;35253;34.688;33.040;2023-02-21T09:47:58;101601.56;;;17.21;100.00
49377;BME280;35253;34.688;33.040;2023-02-21T09:50:26;101597.88;;;17.34;100.00
49377;BME280;35253;34.688;33.040;2023-02-21T09:52:55;101590.84;;;17.44;100.00
49377;BME280;35253;34.688;33.040;2023-02-21T09:55:34;101590.41;;;17.50;100.00
49377;BME280;35253;34.688;33.040;2023-02-21T09:58:00;101586.09;;;17.48;100.00
49377;BME280;35253;34.688;33.040;2023-02-21T10:00:34;101583.69;;;17.56;100.00
49377;BME280;35253;34.688;33.040;2023-02-21T10:08:21;101582.16;;;17.65;100.00
49377;BME280;35253;34.688;33.040;2023-02-21T10:10:53;101571.63;;;17.49;100.00
49377;BME280;35253;34.688;33.040;2023-02-21T10:13:33;101575.47;;;17.70;100.00
49377;BME280;35253;34.688;33.040;2023-02-21T10:16:24;101578.34;;;17.80;100.00
49377;BME280;35253;34.688;33.040;2023-02-21T10:21:34;101571.50;;;17.87;100.00
49377;BME280;35253;34.688;33.040;2023-02-21T10:24:02;101564.53;;;17.95;100.00
49377;BME280;35253;34.688;33.040;2023-02-21T10:26:29;101568.38;;;18.04;100.00
49377;BME280;35253;34.688;33.040;2023-02-21T10:28:55;101561.28;;;17.79;100.00
49377;BME280;35253;34.688;33.040;2023-02-21T10:31:32;101550.22;;;17.71;100.00
49377;BME280;35253;34.688;33.040;2023-02-21T10:33:58;101557.66;;;17.91;100.00
49377;BME280;35253;34.688;33.040;2023-02-21T10:36:24;101553.47;;;18.22;100.00
49377;BME280;35253;34.688;33.040;2023-02-21T10:38:57;101558.66;;;18.25;100.00
49377;BME280;35253;34.688;33.040;2023-02-21T10:41:24;101550.06;;;18.31;100.00
49377;BME280;35253;34.688;33.040;2023-02-21T10:43:52;101553.66;;;18.43;100.00
49377;BME280;35253;34.688;33.040;2023-02-21T10:52:11;101537.28;;;18.90;100.00
49377;BME280;35253;34.688;33.040;2023-02-21T10:54:37;101537.91;;;18.94;100.00
49377;BME280;35253;34.688;33.040;2023-02-21T10:57:03;101535.28;;;19.26;100.00
49377;BME280;35253;34.688;33.040;2023-02-21T10:59:34;101530.69;;;19.49;100.00
49377;BME280;35253;34.688;33.040;2023-02-21T11:02:01;101532.16;;;19.53;100.00
49377;BME280;35253;34.688;33.040;2023-02-21T11:04:28;101518.31;;;19.78;100.00
49377;BME280;35253;34.688;33.040;2023-02-21T11:07:06;101521.81;;;19.58;100.00
49377;BME280;35253;34.688;33.040;2023-02-21T11:09:34;101522.97;;;19.87;100.00
49377;BME280;35253;34.688;33.040;2023-02-21T11:12:04;101516.78;;;20.38;100.00
49377;BME280;35253;34.688;33.040;2023-02-21T11:14:31;101509.81;;;19.51;100.00
49377;BME280;35253;34.688;33.040;2023-02-21T11:17:16;101510.06;;;19.48;100.00
49377;BME280;35253;34.688;33.040;2023-02-21T11:19:43;101507.22;;;19.81;100.00
49377;BME280;35253;34.688;33.040;2023-02-21T11:22:08;101511.78;;;19.38;100.00
49377;BME280;35253;34.688;33.040;2023-02-21T11:27:30;101498.03;;;20.76;100.00
49377;BME280;35253;34.688;33.040;2023-02-21T11:29:57;101496.34;;;21.25;100.00
49377;BME280;35253;34.688;33.040;2023-02-21T11:32:31;101499.13;;;21.53;100.00
49377;BME280;35253;34.688;33.040;2023-02-21T11:35:01;101497.81;;;22.25;100.00
49377;BME280;35253;34.688;33.040;2023-02-21T11:37:27;101494.84;;;21.70;99.80
49377;BME280;35253;34.688;33.040;2023-02-21T11:39:53;101482.16;;;20.62;100.00
49377;BME280;35253;34.688;33.040;2023-02-21T11:42:23;101492.13;;;20.41;100.00
49377;BME280;35253;34.688;33.040;2023-02-21T11:44:49;101488.13;;;20.35;100.00
49377;BME280;35253;34.688;33.040;2023-02-21T11:47:30;101480.69;;;21.57;99.16
49377;BME280;35253;34.688;33.040;2023-02-21T11:52:36;101481.41;;;20.60;100.00
49377;BME280;35253;34.688;33.040;2023-02-21T11:55:11;101489.34;;;20.82;100.00
49377;BME280;35253;34.688;33.040;2023-02-21T12:05:33;101483.13;;;23.28;97.36
49377;BME280;35253;34.688;33.040;2023-02-21T12:13:29;101477.06;;;22.89;100.00
49377;BME280;35253;34.688;33.040;2023-02-21T12:18:38;101455.53;;;23.41;95.75
49377;BME280;35253;34.688;33.040;2023-02-21T12:22:11;101465.06;;;23.72;91.85
49377;BME280;35253;34.688;33.040;2023-02-21T12:24:09;101461.31;;;23.73;91.84
49377;BME280;35253;34.688;33.040;2023-02-21T12:34:22;101446.09;;;22.90;86.34
49377;BME280;35253;34.688;33.040;2023-02-21T12:36:55;101446.97;;;23.36;77.84
49377;BME280;35253;34.688;33.040;2023-02-21T12:52:00;101440.69;;;23.71;77.21
49377;BME280;35253;34.688;33.040;2023-02-21T12:54:37;101435.16;;;23.80;76.19
49377;BME280;35253;34.688;33.040;2023-02-21T12:57:12;101442.94;;;23.75;80.69
49377;BME280;35253;34.688;33.040;2023-02-21T13:02:23;101449.63;;;23.01;88.65
49377;BME280;35253;34.688;33.040;2023-02-21T13:07:39;101453.75;;;22.40;89.33
49377;BME280;35253;34.688;33.040;2023-02-21T13:10:48;101444.81;;;22.58;91.11
49377;BME280;35253;34.688;33.040;2023-02-21T13:15:21;101444.72;;;22.50;95.69
49377;BME280;35253;34.688;33.040;2023-02-21T13:18:09;101447.81;;;22.08;92.21
49377;BME280;35253;34.688;33.040;2023-02-21T13:20:39;101449.75;;;22.35;96.97
49377;BME280;35253;34.688;33.040;2023-02-21T13:28:50;101445.81;;;22.20;98.71
49377;BME280;35253;34.688;33.040;2023-02-21T13:31:17;101443.16;;;20.93;100.00
49377;BME280;35253;34.688;33.040;2023-02-21T13:33:44;101440.69;;;21.78;100.00
49377;BME280;35253;34.688;33.040;2023-02-21T13:38:44;101436.28;;;20.89;100.00
49377;BME280;35253;34.688;33.040;2023-02-21T13:41:10;101445.25;;;21.30;100.00
49377;BME280;35253;34.688;33.040;2023-02-21T13:43:48;101442.88;;;20.26;100.00
49377;BME280;35253;34.688;33.040;2023-02-21T13:51:46;101435.09;;;20.73;100.00
49377;BME280;35253;34.688;33.040;2023-02-21T13:54:11;101439.28;;;20.86;100.00
49377;BME280;35253;34.688;33.040;2023-02-21T13:56:45;101439.44;;;20.54;100.00
49377;BME280;35253;34.688;33.040;2023-02-21T14:01:50;101433.34;;;20.52;100.00
49377;BME280;35253;34.688;33.040;2023-02-21T14:04:59;101439.06;;;21.08;100.00
49377;BME280;35253;34.688;33.040;2023-02-21T14:07:04;101436.28;;;20.89;100.00
49377;BME280;35253;34.688;33.040;2023-02-21T14:09:30;101430.78;;;21.10;100.00
49377;BME280;35253;34.688;33.040;2023-02-21T14:11:59;101433.44;;;20.91;100.00
49377;BME280;35253;34.688;33.040;2023-02-21T14:14:29;101435.09;;;20.12;100.00
49377;BME280;35253;34.688;33.040;2023-02-21T14:17:00;101431.69;;;20.19;100.00
49377;BME280;35253;34.688;33.040;2023-02-21T14:19:30;101437.28;;;19.45;100.00
49377;BME280;35253;34.688;33.040;2023-02-21T14:24:28;101437.13;;;19.14;100.00
49377;BME280;35253;34.688;33.040;2023-02-21T14:26:56;101438.56;;;19.18;100.00
49377;BME280;35253;34.688;33.040;2023-02-21T14:34:40;101427.59;;;18.32;100.00
49377;BME280;35253;34.688;33.040;2023-02-21T14:37:18;101434.50;;;18.70;100.00
49377;BME280;35253;34.688;33.040;2023-02-21T14:39:47;101437.66;;;18.41;100.00
49377;BME280;35253;34.688;33.040;2023-02-21T14:42:32;101433.13;;;18.20;100.00
49377;BME280;35253;34.688;33.040;2023-02-21T14:47:51;101444.25;;;18.04;100.00
49377;BME280;35253;34.688;33.040;2023-02-21T14:52:53;101432.16;;;17.75;100.00